Time;durP1;ratioP1;P1;durP2;ratioP2;P2;SDS_P1;SDS_P2;PMS_P1;PMS_P2;Temp;Humidity;BMP_temperature;BMP_pressure;BME280_temperature;BME280_humidity;BME280_pressure;Samples;Min_cycle;Max_cycle;Signal;HPM_P1;HPM_P2
2022/05/17 00:01:12;;;;;;;406.70;390.02;;;15.90;99.90;;;15.87;100.00;101205.44;4971753;28;20205;-78
2022/05/17 00:03:40;;;;;;;419.83;402.65;;;15.90;99.90;;;15.83;100.00;101211.66;4976592;28;20224;-78
2022/05/17 00:06:09;;;;;;;420.55;403.20;;;15.80;99.90;;;15.70;100.00;101209.88;4985460;28;20678;-78
2022/05/17 00:08:38;;;;;;;429.33;411.52;;;15.80;99.90;;;15.74;100.00;101240.09;4939585;28;20217;-78
2022/05/17 00:11:06;;;;;;;419.42;402.35;;;15.80;99.90;;;15.68;100.00;101241.88;4961243;28;20205;-78
2022/05/17 00:13:35;;;;;;;412.85;395.73;;;15.80;99.90;;;15.57;100.00;101240.03;4969900;28;20232;-78
2022/05/17 00:16:04;;;;;;;436.77;415.77;;;15.70;99.90;;;15.34;100.00;101247.97;4968102;28;20230;-78
2022/05/17 00:18:33;;;;;;;443.58;425.33;;;15.60;99.90;;;15.27;100.00;101255.06;4959851;28;20294;-78
2022/05/17 00:21:01;;;;;;;436.98;419.08;;;15.60;99.90;;;15.33;100.00;101271.06;4972285;28;20212;-78
2022/05/17 00:23:30;;;;;;;453.27;434.08;;;15.50;99.90;;;15.30;100.00;101262.19;4969064;28;20217;-78
2022/05/17 00:25:58;;;;;;;412.25;395.08;;;15.50;99.90;;;15.17;100.00;101263.03;4979388;28;20225;-78
2022/05/17 00:28:26;;;;;;;435.13;417.05;;;15.50;99.90;;;15.20;100.00;101273.69;4956484;28;20216;-78
2022/05/17 00:30:54;;;;;;;402.70;386.40;;;15.50;99.90;;;15.27;100.00;101268.41;4943086;28;20211;-78
2022/05/17 00:33:22;;;;;;;412.67;396.05;;;15.50;99.90;;;15.19;100.00;101274.59;4982746;28;20232;-78
2022/05/17 00:35:50;;;;;;;431.33;413.33;;;15.50;99.90;;;15.08;100.00;101277.22;4958344;28;20224;-80
2022/05/17 00:38:19;;;;;;;429.00;410.92;;;15.50;99.90;;;14.95;100.00;101259.41;4957954;28;20212;-78
2022/05/17 00:40:47;;;;;;;429.08;410.45;;;15.40;99.90;;;14.91;100.00;101265.59;4969700;28;20224;-78
2022/05/17 00:44:42;;;;;;;419.58;402.02;;;15.30;99.90;;;15.02;100.00;101272.75;4971779;28;20213;-77
2022/05/17 00:46:46;;;;;;;431.00;413.13;;;15.30;99.90;;;15.05;100.00;101270.09;4968747;28;20221;-78
2022/05/17 00:49:32;;;;;;;406.35;389.83;;;15.30;99.90;;;15.01;100.00;101278.06;4937675;28;20213;-79
2022/05/17 00:52:06;;;;;;;422.92;404.85;;;15.20;99.90;;;14.77;100.00;101280.63;4974301;28;20218;-80
2022/05/17 00:54:36;;;;;;;420.77;403.33;;;15.10;99.90;;;14.74;100.00;101294.81;4968592;28;20243;-79
2022/05/17 00:58:12;;;;;;;430.13;412.23;;;15.10;99.90;;;14.99;100.00;101280.72;4979542;28;20217;-81
2022/05/17 01:00:53;;;;;;;432.60;414.67;;;15.10;99.90;;;15.00;100.00;101292.28;4973782;28;20210;-80
2022/05/17 01:03:22;;;;;;;430.75;413.10;;;15.10;99.90;;;14.95;100.00;101270.94;4944312;28;20212;-78
2022/05/17 01:05:54;;;;;;;438.63;419.98;;;15.10;99.90;;;14.90;100.00;101270.03;4953638;28;20235;-78
2022/05/17 01:08:24;;;;;;;450.65;432.08;;;15.00;99.90;;;14.91;100.00;101266.47;4976773;28;20213;-79
2022/05/17 01:10:52;;;;;;;432.10;414.00;;;15.00;99.90;;;14.70;100.00;101259.28;4976837;28;20205;-79
2022/05/17 01:16:11;;;;;;;442.67;422.20;;;15.00;99.90;;;14.76;100.00;101269.06;4969515;28;20229;-78
2022/05/17 01:18:42;;;;;;;442.75;424.10;;;14.90;99.90;;;14.28;100.00;101266.94;4971943;28;20221;-78
2022/05/17 01:21:12;;;;;;;429.58;411.45;;;14.80;99.90;;;14.33;100.00;101283.84;4978147;28;20281;-78
2022/05/17 01:23:40;;;;;;;428.20;410.23;;;14.70;99.90;;;14.41;100.00;101308.75;4971568;28;20202;-81
2022/05/17 01:26:22;;;;;;;404.60;388.25;;;14.70;99.90;;;14.39;100.00;101287.44;4974627;28;20233;-78
2022/05/17 01:28:50;;;;;;;421.10;403.55;;;14.70;99.90;;;14.49;100.00;101284.88;4956728;28;20213;-78
2022/05/17 01:31:19;;;;;;;407.67;391.05;;;14.60;99.90;;;14.53;100.00;101292.91;4980934;28;20208;-78
2022/05/17 01:33:48;;;;;;;413.30;396.48;;;14.70;99.90;;;14.31;100.00;101275.84;4974477;28;20236;-78
2022/05/17 01:36:21;;;;;;;427.23;408.77;;;14.60;99.90;;;14.28;100.00;101294.44;4976568;28;20240;-80
2022/05/17 01:38:51;;;;;;;406.83;390.25;;;14.50;99.90;;;14.32;100.00;101306.03;4968247;28;20206;-78
2022/05/17 01:41:21;;;;;;;414.38;397.40;;;14.50;99.90;;;14.41;100.00;101300.75;4975842;28;20222;-78
2022/05/17 01:43:53;;;;;;;423.35;405.63;;;14.50;99.90;;;14.35;100.00;101304.28;4971249;28;20228;-78
2022/05/17 01:46:21;;;;;;;430.40;411.27;;;14.50;99.90;;;14.35;100.00;101320.25;4956448;28;20237;-78
2022/05/17 01:48:51;;;;;;;426.00;408.10;;;14.50;99.90;;;14.36;100.00;101350.41;4962609;28;20221;-78
2022/05/17 01:51:21;;;;;;;423.13;404.70;;;14.40;99.90;;;14.31;100.00;101363.66;4976187;28;20213;-78
2022/05/17 01:53:49;;;;;;;426.98;409.48;;;14.40;99.90;;;14.25;100.00;101363.59;4988498;28;20256;-81
2022/05/17 01:56:17;;;;;;;388.55;372.83;;;14.40;99.90;;;14.24;100.00;101352.94;4980762;28;20217;-78
2022/05/17 01:58:45;;;;;;;391.95;375.33;;;14.40;99.90;;;13.98;100.00;101345.59;4970343;28;20213;-78
2022/05/17 02:01:13;;;;;;;405.30;388.52;;;14.30;99.90;;;13.75;100.00;101348.03;4967589;28;20213;-78
2022/05/17 02:03:41;;;;;;;394.35;378.27;;;14.20;99.90;;;13.75;100.00;101356.00;4977109;28;20212;-78
2022/05/17 02:06:09;;;;;;;409.02;391.88;;;14.10;99.90;;;13.88;100.00;101353.47;4977183;28;20232;-79
2022/05/17 02:08:37;;;;;;;397.77;381.73;;;14.10;99.90;;;13.50;100.00;101361.03;4985697;28;20213;-80
2022/05/17 02:11:05;;;;;;;395.55;379.33;;;14.00;99.90;;;13.65;100.00;101379.81;4988269;28;20552;-79
2022/05/17 02:13:34;;;;;;;384.92;369.20;;;13.90;99.90;;;13.71;100.00;101385.19;4982490;28;20209;-80
2022/05/17 02:16:06;;;;;;;409.10;389.70;;;13.90;99.90;;;13.75;100.00;101371.97;4956032;28;20229;-79
2022/05/17 02:18:35;;;;;;;390.67;374.77;;;13.90;99.90;;;13.48;100.00;101382.28;4976931;28;20213;-78
2022/05/17 02:21:03;;;;;;;391.83;376.00;;;13.90;99.90;;;13.40;100.00;101379.53;4979171;28;20204;-78
2022/05/17 02:23:31;;;;;;;384.80;369.05;;;13.80;99.90;;;13.52;100.00;101407.13;4971831;28;20209;-78
2022/05/17 02:25:59;;;;;;;364.92;349.58;;;13.70;99.90;;;13.50;100.00;101415.06;4946091;28;20226;-78
2022/05/17 02:28:27;;;;;;;353.42;338.50;;;13.70;99.90;;;13.30;100.00;101412.16;4971824;28;20210;-78
2022/05/17 02:30:55;;;;;;;343.17;329.80;;;13.70;99.90;;;13.37;100.00;101415.78;4985181;28;20598;-78
2022/05/17 02:33:23;;;;;;;344.05;330.05;;;13.70;99.90;;;13.44;100.00;101418.53;4983555;28;20205;-78
2022/05/17 02:35:51;;;;;;;344.10;330.52;;;13.70;99.90;;;13.33;100.00;101419.28;4972553;28;20233;-78
2022/05/17 02:38:19;;;;;;;353.70;339.20;;;13.60;99.90;;;13.40;100.00;101421.13;4983998;28;20213;-81
2022/05/17 02:40:47;;;;;;;360.92;345.83;;;13.60;99.90;;;13.47;100.00;101423.00;4973477;28;20210;-79
2022/05/17 02:43:15;;;;;;;348.65;334.60;;;13.60;99.90;;;13.60;100.00;101443.56;4967322;28;20213;-78
2022/05/17 02:45:43;;;;;;;335.65;322.05;;;13.60;99.90;;;13.45;100.00;101416.78;4973512;28;20211;-78
2022/05/17 02:48:11;;;;;;;361.85;346.95;;;13.60;99.90;;;13.42;100.00;101422.06;4974164;28;20216;-78
2022/05/17 02:50:39;;;;;;;349.35;335.42;;;13.60;99.90;;;13.31;100.00;101421.03;4949694;28;20694;-78
2022/05/17 02:53:07;;;;;;;363.08;348.10;;;13.60;99.90;;;13.17;100.00;101444.72;4953207;28;20210;-78
2022/05/17 02:55:35;;;;;;;350.42;336.52;;;13.50;99.90;;;13.29;100.00;101444.00;4981478;28;20237;-78
2022/05/17 02:58:03;;;;;;;342.90;328.98;;;13.40;99.90;;;13.40;100.00;101456.56;4982039;28;20201;-78
2022/05/17 03:00:32;;;;;;;354.05;339.35;;;13.50;99.90;;;13.28;100.00;101456.41;4970148;28;20677;-79
2022/05/17 03:03:00;;;;;;;377.20;360.20;;;13.50;99.90;;;13.29;100.00;101462.59;4973619;28;20190;-78
2022/05/17 03:05:28;;;;;;;363.27;348.80;;;13.50;99.90;;;13.08;100.00;101464.03;4972356;28;20213;-78
2022/05/17 03:07:56;;;;;;;404.85;384.17;;;13.40;99.90;;;13.20;100.00;101479.31;4977166;28;20574;-78
2022/05/17 03:10:24;;;;;;;357.83;342.90;;;13.30;99.90;;;13.28;100.00;101493.59;4972056;28;20205;-78
2022/05/17 03:12:52;;;;;;;356.75;342.45;;;13.40;99.90;;;13.50;100.00;101496.56;4975536;28;20209;-79
2022/05/17 03:15:21;;;;;;;338.63;325.20;;;13.40;99.90;;;13.47;100.00;101513.34;4979097;28;20802;-79
2022/05/17 03:17:50;;;;;;;330.35;317.30;;;13.40;99.90;;;13.40;100.00;101496.44;4984494;28;20713;-79
2022/05/17 03:20:18;;;;;;;329.92;317.08;;;13.40;99.90;;;13.42;100.00;101494.69;4973877;28;20215;-77
2022/05/17 03:22:46;;;;;;;342.23;328.88;;;13.40;99.90;;;13.28;100.00;101479.41;4975034;28;20210;-78
2022/05/17 03:25:14;;;;;;;350.42;336.10;;;13.40;99.90;;;13.33;100.00;101470.66;4978956;28;20212;-77
2022/05/17 03:27:57;;;;;;;347.35;333.73;;;13.40;99.90;;;13.35;100.00;101462.69;4975631;28;20201;-78
2022/05/17 03:30:25;;;;;;;352.90;338.63;;;13.40;99.90;;;13.34;100.00;101455.59;4975317;28;20215;-78
2022/05/17 03:32:54;;;;;;;365.13;350.45;;;13.40;99.90;;;13.31;100.00;101431.66;4980465;28;20213;-78
2022/05/17 03:35:24;;;;;;;381.10;365.02;;;13.40;99.90;;;13.10;100.00;101434.84;4989310;28;20239;-79
2022/05/17 03:37:52;;;;;;;363.63;348.85;;;13.30;99.90;;;12.56;100.00;101438.41;4959439;28;20228;-78
2022/05/17 03:40:19;;;;;;;361.80;346.42;;;13.10;99.90;;;12.53;100.00;101464.88;4987226;28;20233;-78
2022/05/17 03:42:47;;;;;;;369.77;354.38;;;13.00;99.90;;;12.60;100.00;101471.19;4972786;28;20205;-78
2022/05/17 03:45:16;;;;;;;352.65;338.08;;;12.90;99.90;;;12.68;100.00;101517.31;4978609;28;20205;-80
2022/05/17 03:47:45;;;;;;;354.50;339.67;;;12.90;99.90;;;12.67;100.00;101547.38;4972306;28;20341;-77
2022/05/17 03:50:13;;;;;;;363.48;347.20;;;12.90;99.90;;;12.74;100.00;101551.94;4982328;28;20212;-78
2022/05/17 03:52:42;;;;;;;369.10;353.88;;;12.80;99.90;;;12.75;100.00;101548.41;4979567;28;20209;-77
2022/05/17 03:55:10;;;;;;;359.48;344.17;;;12.90;99.90;;;12.62;100.00;101562.34;4966556;28;20228;-77
2022/05/17 03:57:38;;;;;;;355.42;340.20;;;12.90;99.90;;;12.67;100.00;101564.22;4968818;28;20217;-79
2022/05/17 04:00:08;;;;;;;350.20;336.08;;;12.80;99.90;;;12.77;100.00;101573.22;4978572;28;20204;-78
2022/05/17 04:02:44;;;;;;;355.75;340.88;;;12.90;99.90;;;12.77;100.00;101573.22;4976398;28;20209;-79
2022/05/17 04:05:12;;;;;;;361.70;345.58;;;12.80;99.90;;;12.59;100.00;101568.47;4970460;28;20229;-78
2022/05/17 04:07:45;;;;;;;369.38;352.77;;;12.80;99.90;;;12.63;100.00;101590.66;4972294;28;20248;-79
2022/05/17 04:10:17;;;;;;;341.15;327.45;;;12.80;99.90;;;12.69;100.00;101590.78;4988442;28;20207;-79
2022/05/17 04:12:46;;;;;;;353.98;338.75;;;12.80;99.90;;;12.89;100.00;101605.31;4980776;28;20216;-81
2022/05/17 04:15:19;;;;;;;345.38;330.77;;;12.90;99.90;;;12.97;100.00;101578.91;4952051;28;20697;-80
2022/05/17 04:17:49;;;;;;;351.08;335.65;;;12.90;99.90;;;12.85;100.00;101578.69;4970291;28;20221;-79
2022/05/17 04:20:18;;;;;;;332.27;318.17;;;13.00;99.90;;;12.84;100.00;101591.06;4974502;28;20228;-79
2022/05/17 04:22:49;;;;;;;327.42;314.25;;;13.00;99.90;;;12.89;100.00;101599.09;4979365;28;20221;-79
2022/05/17 04:25:23;;;;;;;337.05;323.13;;;13.00;99.90;;;12.89;100.00;101583.19;4979357;28;20212;-79
2022/05/17 04:27:51;;;;;;;343.23;329.33;;;13.00;99.90;;;12.92;100.00;101600.06;4976733;28;20237;-79
2022/05/17 04:30:21;;;;;;;355.52;341.05;;;13.00;99.90;;;12.95;100.00;101592.16;4948865;29;20209;-80
2022/05/17 04:32:50;;;;;;;352.63;338.42;;;13.00;99.90;;;13.01;100.00;101600.25;4973153;28;20213;-82
2022/05/17 04:35:19;;;;;;;362.17;347.27;;;13.10;99.90;;;13.03;100.00;101614.44;4977491;28;20244;-80
2022/05/17 04:37:50;;;;;;;361.90;347.10;;;13.10;99.90;;;13.04;100.00;101610.03;4976872;28;20216;-80
2022/05/17 04:40:19;;;;;;;379.38;363.10;;;13.10;99.90;;;13.21;100.00;101599.75;4996313;28;20212;-80
2022/05/17 04:42:49;;;;;;;369.67;354.58;;;13.10;99.90;;;13.37;100.00;101602.66;4982398;28;20216;-79
2022/05/17 04:45:18;;;;;;;377.92;361.77;;;13.20;99.90;;;13.49;100.00;101572.75;4976215;28;20221;-80
2022/05/17 04:47:46;;;;;;;382.73;366.95;;;13.30;99.90;;;13.62;100.00;101563.19;4959913;28;20252;-79
2022/05/17 04:50:17;;;;;;;383.98;368.08;;;13.40;99.90;;;13.60;100.00;101554.28;4960061;28;20200;-81
2022/05/17 04:52:47;;;;;;;388.63;372.13;;;13.50;99.90;;;13.78;100.00;101590.00;4976491;28;20201;-80
2022/05/17 04:55:18;;;;;;;407.10;389.55;;;13.50;99.90;;;13.81;100.00;101535.09;4976020;28;20229;-79
2022/05/17 04:57:47;;;;;;;416.23;398.35;;;13.60;99.90;;;13.91;100.00;101537.00;4946932;29;20230;-81
2022/05/17 05:00:20;;;;;;;393.90;377.30;;;13.80;99.90;;;13.92;100.00;101514.84;4957171;29;20214;-79
2022/05/17 05:02:48;;;;;;;396.27;379.83;;;13.90;99.90;;;14.08;100.00;101531.00;4941255;29;20205;-80
2022/05/17 05:05:17;;;;;;;383.48;367.13;;;14.00;99.90;;;14.13;100.00;101544.38;4943547;28;20224;-80
2022/05/17 05:07:45;;;;;;;375.08;359.70;;;14.10;99.90;;;14.25;100.00;101536.53;4976685;28;20233;-80
2022/05/17 05:10:14;;;;;;;373.08;357.40;;;14.10;99.90;;;14.38;100.00;101543.81;4970907;28;20202;-80
2022/05/17 05:12:42;;;;;;;349.90;335.88;;;14.20;99.90;;;14.42;100.00;101558.06;4978765;28;20216;-80
2022/05/17 05:15:12;;;;;;;341.10;327.20;;;14.20;99.90;;;14.51;100.00;101574.16;4991505;28;20212;-80
2022/05/17 05:17:41;;;;;;;350.17;336.20;;;14.30;99.90;;;14.61;100.00;101589.34;4976305;28;20232;-81
2022/05/17 05:20:13;;;;;;;356.52;342.17;;;14.30;99.90;;;14.73;100.00;101613.44;4976982;28;20201;-79
2022/05/17 05:22:41;;;;;;;342.33;328.80;;;14.40;99.90;;;14.85;100.00;101633.09;4958944;28;20209;-79
2022/05/17 05:25:14;;;;;;;346.65;332.70;;;14.50;99.90;;;14.94;100.00;101652.72;4976412;28;20213;-80
2022/05/17 05:27:42;;;;;;;341.70;327.65;;;14.50;99.90;;;15.03;100.00;101665.25;4968611;28;20240;-81
2022/05/17 05:30:14;;;;;;;322.27;309.80;;;14.60;99.90;;;15.16;100.00;101666.25;4973491;28;20204;-80
2022/05/17 05:32:42;;;;;;;342.02;328.40;;;14.70;99.90;;;15.29;100.00;101670.84;4975021;28;20205;-79
2022/05/17 05:35:10;;;;;;;333.10;320.02;;;14.80;99.90;;;15.51;100.00;101682.56;4975452;28;20212;-79
2022/05/17 05:37:38;;;;;;;345.48;330.73;;;14.90;99.90;;;15.66;100.00;101681.00;4975441;28;20692;-80
2022/05/17 05:40:08;;;;;;;335.60;321.52;;;15.00;99.90;;;15.77;100.00;101670.41;4974761;28;20224;-80
2022/05/17 05:42:38;;;;;;;326.88;313.40;;;15.10;99.90;;;15.87;100.00;101661.59;4974219;28;20213;-80
2022/05/17 05:45:07;;;;;;;329.48;314.08;;;15.20;99.90;;;16.07;100.00;101668.84;4973850;28;20215;-81
2022/05/17 05:47:35;;;;;;;331.85;318.10;;;15.30;99.90;;;16.16;100.00;101661.78;4973600;28;20232;-79
2022/05/17 05:50:04;;;;;;;318.80;305.88;;;15.40;99.90;;;16.25;100.00;101659.16;4993834;28;20665;-80
2022/05/17 05:52:32;;;;;;;318.23;305.15;;;15.60;99.90;;;16.41;100.00;101656.56;4993295;28;20200;-79
2022/05/17 05:55:00;;;;;;;335.50;320.80;;;15.70;99.90;;;16.49;100.00;101649.47;4991690;28;20219;-80
2022/05/17 05:57:29;;;;;;;340.27;326.10;;;15.90;99.90;;;16.65;100.00;101648.69;4973279;28;20244;-79
2022/05/17 05:59:57;;;;;;;337.70;323.75;;;15.90;99.90;;;16.83;100.00;101646.06;4972485;28;20213;-80
2022/05/17 06:02:25;;;;;;;349.80;335.08;;;16.00;99.90;;;16.91;100.00;101617.63;4973531;28;20212;-80
2022/05/17 06:04:53;;;;;;;361.42;345.98;;;16.20;99.90;;;17.10;100.00;101605.16;4956581;28;20213;-81
2022/05/17 06:07:21;;;;;;;366.73;351.13;;;16.30;99.90;;;17.23;100.00;101587.34;4956370;28;20233;-80
2022/05/17 06:09:49;;;;;;;391.10;373.15;;;16.40;99.90;;;17.39;100.00;101574.88;4970803;28;20216;-80
2022/05/17 06:12:17;;;;;;;389.65;372.25;;;16.60;99.90;;;17.37;100.00;101544.56;4975558;28;20212;-80
2022/05/17 06:14:45;;;;;;;384.17;367.63;;;16.70;99.90;;;17.49;100.00;101529.38;4983920;28;20219;-80
2022/05/17 06:17:13;;;;;;;396.08;378.80;;;16.90;99.90;;;17.59;100.00;101514.22;4966398;28;20581;-79
2022/05/17 06:19:41;;;;;;;412.95;395.13;;;16.90;99.90;;;17.65;100.00;101499.94;4967380;28;20214;-80
2022/05/17 06:22:10;;;;;;;433.17;414.40;;;17.10;99.90;;;17.61;100.00;101477.66;4969963;28;20210;-80
2022/05/17 06:24:38;;;;;;;439.27;419.73;;;17.30;99.90;;;17.84;100.00;101464.22;4954840;28;20213;-81
2022/05/17 06:27:06;;;;;;;464.75;444.27;;;17.20;99.90;;;18.21;100.00;101484.56;4959412;28;20241;-81
2022/05/17 06:29:35;;;;;;;510.50;488.27;;;17.40;99.90;;;18.31;100.00;101472.03;4973176;28;20201;-79
2022/05/17 06:32:04;;;;;;;582.13;552.40;;;17.60;99.90;;;18.27;100.00;101445.28;4963695;28;20201;-81
2022/05/17 06:34:31;;;;;;;578.08;551.30;;;17.70;99.90;;;18.40;100.00;101438.94;4967966;28;20213;-80
2022/05/17 06:36:59;;;;;;;492.70;470.52;;;17.90;99.90;;;18.45;100.00;101429.06;4970167;28;20233;-80
2022/05/17 06:39:27;;;;;;;492.65;470.63;;;17.90;99.90;;;18.69;100.00;101433.38;4969514;28;20224;-80
2022/05/17 06:41:55;;;;;;;498.02;475.88;;;;;;;18.70;100.00;101429.81;4973186;28;20209;-83
2022/05/17 06:44:24;;;;;;;508.00;485.20;;;18.20;99.90;;;18.77;100.00;101428.84;4955416;28;20205;-81
2022/05/17 06:46:54;;;;;;;497.95;475.23;;;18.40;99.90;;;18.82;100.00;101413.59;4971958;28;20229;-80
2022/05/17 06:49:22;;;;;;;508.40;485.45;;;18.40;99.90;;;18.78;100.00;101396.66;4972752;28;20213;-79
2022/05/17 06:51:51;;;;;;;550.10;524.92;;;18.60;99.90;;;19.11;100.00;101407.97;4972531;28;20209;-80
2022/05/17 06:54:19;;;;;;;552.65;527.17;;;18.60;99.90;;;18.96;100.00;101367.91;4969582;28;20205;-80
2022/05/17 06:56:47;;;;;;;496.50;473.88;;;18.70;99.90;;;19.03;100.00;101377.66;4976538;28;20241;-80
2022/05/17 06:59:14;;;;;;;459.73;438.90;;;18.80;99.90;;;19.16;100.00;101379.31;4979758;28;20201;-81
2022/05/17 07:01:43;;;;;;;444.90;424.60;;;18.90;99.90;;;19.12;100.00;101361.47;4960097;28;20213;-79
2022/05/17 07:04:13;;;;;;;422.25;401.90;;;19.00;99.90;;;19.23;100.00;101366.72;4977175;28;20213;-79
2022/05/17 07:06:42;;;;;;;449.65;428.98;;;19.10;99.90;;;19.61;100.00;101385.06;4979307;28;20235;-80
2022/05/17 07:09:12;;;;;;;435.13;415.52;;;20.70;99.90;;;19.62;100.00;101360.91;4986359;28;20571;-80
2022/05/17 07:14:28;;;;;;;408.48;389.85;;;19.50;99.90;;;19.90;100.00;101358.72;4983540;28;20212;-80
2022/05/17 07:16:56;;;;;;;407.90;389.23;;;19.70;99.90;;;20.09;100.00;101362.03;4977149;28;20251;-80
2022/05/17 07:19:24;;;;;;;445.30;424.75;;;19.90;99.90;;;20.30;100.00;101375.09;4979319;28;20206;-80
2022/05/17 07:22:05;;;;;;;459.20;437.52;;;20.00;99.90;;;20.42;100.00;101333.75;4966341;28;20596;-80
2022/05/17 07:24:36;;;;;;;461.30;439.85;;;20.20;99.90;;;20.76;100.00;101328.66;4979705;28;20209;-81
2022/05/17 07:27:06;;;;;;;501.17;477.75;;;20.60;99.90;;;20.84;100.00;101304.34;4958867;28;20233;-81
2022/05/17 07:29:49;;;;;;;487.23;464.02;;;20.70;99.90;;;20.44;100.00;101240.56;4976998;28;20220;-80
2022/05/17 07:32:17;;;;;;;472.55;450.80;;;20.70;99.90;;;20.84;100.00;101283.72;4983345;28;20208;-81
2022/05/17 07:34:47;;;;;;;476.73;453.70;;;20.80;99.90;;;21.45;100.00;101317.47;4975306;28;20213;-80
2022/05/17 07:37:16;;;;;;;474.48;451.67;;;21.10;99.90;;;21.87;100.00;101285.09;4974902;28;20240;-80
2022/05/17 07:39:44;;;;;;;488.63;464.52;;;21.50;99.90;;;21.34;100.00;101219.94;4962052;28;20583;-80
2022/05/17 07:42:12;;;;;;;467.80;445.65;;;21.60;99.90;;;21.51;100.00;101223.13;4961287;28;20217;-80
2022/05/17 07:44:41;;;;;;;471.40;449.35;;;21.70;99.90;;;21.40;100.00;101188.38;4974630;28;20224;-80
2022/05/17 07:47:15;;;;;;;460.00;437.80;;;21.90;99.90;;;21.51;100.00;101223.13;4972899;28;20243;-80
2022/05/17 07:49:43;;;;;;;468.80;446.35;;;22.10;99.90;;;21.67;100.00;101226.34;4974353;28;20217;-80
2022/05/17 07:52:12;;;;;;;467.85;444.05;;;22.30;99.90;;;21.72;100.00;101240.56;4963160;28;20206;-81
2022/05/17 07:54:41;;;;;;;457.52;434.77;;;;;;;21.96;100.00;101163.66;4946088;28;20201;-81
2022/05/17 07:57:10;;;;;;;476.50;452.13;;;;;;;21.77;100.00;101179.41;4972999;28;20247;-81
2022/05/17 07:59:38;;;;;;;486.58;461.58;;;;;;;21.79;100.00;101177.56;4979437;28;20212;-81
2022/05/17 08:02:06;;;;;;;469.00;444.98;;;22.60;99.90;;;22.10;100.00;101212.69;4971451;28;20209;-81
2022/05/17 08:04:34;;;;;;;454.23;430.60;;;;;;;22.23;100.00;101194.44;4973758;28;20213;-81
2022/05/17 08:07:03;;;;;;;444.27;421.75;;;23.00;99.90;;;22.63;100.00;101207.69;4971462;28;20224;-81
2022/05/17 08:09:35;;;;;;;461.27;438.05;;;23.30;99.90;;;22.34;100.00;101174.34;4975571;28;20584;-81
2022/05/17 08:12:07;;;;;;;498.33;473.27;;;23.50;99.90;;;22.85;100.00;101234.97;4969932;28;20209;-81
2022/05/17 08:14:36;;;;;;;522.58;495.10;;;23.60;99.90;;;22.85;100.00;101140.56;4975854;28;20219;-82
2022/05/17 08:17:07;;;;;;;528.22;500.25;;;23.90;99.90;;;22.32;100.00;101092.66;4981787;28;20227;-83
2022/05/17 08:19:39;;;;;;;527.00;499.20;;;23.80;99.90;;;22.50;100.00;101126.28;4963684;28;20231;-80
2022/05/17 08:22:14;;;;;;;518.92;490.10;;;23.80;99.90;;;22.83;100.00;101139.72;4971788;28;20200;-84
2022/05/17 08:27:31;;;;;;;558.38;527.90;;;23.80;99.90;;;22.99;100.00;101141.03;4968776;28;20228;-82
2022/05/17 08:30:00;;;;;;;553.33;523.28;;;23.90;99.90;;;22.68;97.85;101028.69;4974194;28;20212;-80
2022/05/17 08:35:15;;;;;;;610.08;575.78;;;24.20;99.90;;;23.11;99.28;101081.28;4954207;28;20678;-80
2022/05/17 08:37:44;;;;;;;709.70;668.67;;;;;;;23.39;96.54;101069.56;4968031;28;20232;-80
2022/05/17 08:40:22;;;;;;;734.15;691.88;;;24.90;99.90;;;23.61;94.61;101058.03;4976375;28;20216;-80
2022/05/17 08:42:56;;;;;;;934.00;881.20;;;25.20;99.90;;;23.48;94.44;101009.91;4949378;28;20765;-81
2022/05/17 08:45:36;;;;;;;575.55;542.30;;;24.90;99.90;;;22.88;96.91;100957.06;4951674;28;20214;-81
2022/05/17 08:48:15;;;;;;;540.70;510.25;;;24.90;99.90;;;23.52;96.47;101035.84;4955097;28;20215;-80
2022/05/17 08:50:46;;;;;;;547.55;516.72;;;24.80;99.90;;;23.79;94.97;101032.22;4960632;28;20265;-80
2022/05/17 08:53:18;;;;;;;543.65;512.92;;;24.80;99.90;;;24.12;90.69;100997.66;4940479;28;20208;-82
2022/05/17 08:55:50;;;;;;;510.20;481.27;;;25.70;99.90;;;24.52;86.99;100953.75;4945384;28;20209;-81
2022/05/17 08:58:28;;;;;;;519.63;490.02;;;25.80;99.90;;;24.50;86.96;100928.59;4971468;28;20224;-80
2022/05/17 09:01:07;;;;;;;637.13;599.22;;;26.20;99.90;;;24.93;87.04;100963.84;4953217;28;20196;-78
2022/05/17 09:04:12;;;;;;;614.90;578.72;;;26.10;99.90;;;23.91;87.86;100829.16;4953834;28;20213;-79
2022/05/17 09:06:58;;;;;;;656.58;617.80;;;26.10;99.90;;;25.44;87.86;100968.88;4964053;28;20237;-79
2022/05/17 09:09:58;;;;;;;909.20;856.45;;;26.70;99.90;;;24.73;83.68;100832.13;4954697;29;20205;-78
2022/05/17 09:12:42;;;;;;;768.60;723.45;;;27.10;99.90;;;25.66;81.19;100898.41;4952212;29;20213;-79
2022/05/17 09:15:13;;;;;;;419.20;394.55;;;27.20;99.90;;;24.98;79.70;100756.22;4937569;29;20209;-79
2022/05/17 09:17:42;;;;;;;503.08;473.40;;;27.30;99.90;;;25.06;80.34;100757.63;4948990;28;20240;-80
2022/05/17 09:20:18;;;;;;;623.42;585.65;;;27.70;99.90;;;25.36;80.89;100800.47;4964838;28;20220;-79
2022/05/17 09:22:46;;;;;;;676.20;636.13;;;;;;;24.99;79.36;100709.28;4956735;28;20208;-79
2022/05/17 09:25:26;;;;;;;528.00;497.50;;;27.40;99.90;;;25.15;77.31;100683.25;4956091;28;20205;-78
2022/05/17 09:27:55;;;;;;;439.77;414.48;;;27.40;99.90;;;25.04;75.21;100618.81;4956124;29;20236;-79
2022/05/17 09:30:23;;;;;;;732.08;688.28;;;27.70;99.90;;;25.76;74.91;100681.19;4974108;28;20666;-79
2022/05/17 09:33:11;;;;;;;595.75;560.35;;;27.90;99.90;;;25.13;75.89;100606.66;4958672;28;20207;-79
2022/05/17 09:35:57;;;;;;;576.42;542.13;;;27.80;99.90;;;25.57;76.34;100669.47;4974672;28;20200;-80
2022/05/17 09:38:35;;;;;;;295.55;279.17;;;27.90;99.90;;;25.18;72.00;100531.53;4975382;28;20243;-79
2022/05/17 09:41:09;;;;;;;308.67;291.73;;;28.20;99.90;;;25.94;71.12;100603.50;4958486;28;20223;-79
2022/05/17 09:43:50;;;;;;;310.38;292.92;;;28.50;99.90;;;25.42;73.04;100522.19;4958448;28;20213;-79
2022/05/17 09:46:34;;;;;;;340.10;320.80;;;28.30;99.90;;;25.82;71.02;100544.53;4958586;28;20224;-78
2022/05/17 09:52:33;;;;;;;762.95;716.67;;;29.30;99.90;;;26.63;67.50;100541.09;4975172;28;20213;-79
2022/05/17 09:55:10;;;;;;;606.92;569.10;;;29.10;99.90;;;26.36;67.94;100493.78;4968440;28;20204;-79
2022/05/17 09:57:54;;;;;;;701.97;658.80;;;29.30;99.90;;;26.23;65.70;100416.78;4975050;28;20243;-79
2022/05/17 10:00:28;;;;;;;784.45;735.90;;;29.90;99.90;;;27.05;66.27;100507.06;4955548;29;20213;-80
2022/05/17 10:03:07;;;;;;;738.25;691.30;;;29.90;99.90;;;26.94;66.69;100449.78;4942283;28;20561;-79
2022/05/17 10:05:40;;;;;;;393.25;369.63;;;29.00;99.90;;;26.12;72.81;100441.78;4960403;28;20208;-78
2022/05/17 10:08:40;;;;;;;307.30;289.55;;;29.00;99.90;;;25.99;71.95;100446.09;4978052;28;20219;-78
2022/05/17 10:11:20;;;;;;;311.02;293.40;;;28.20;99.90;;;26.60;68.36;100429.16;4956842;28;20213;-79
2022/05/17 10:14:17;;;;;;;317.88;299.45;;;29.10;99.90;;;26.69;74.28;100502.75;4984837;28;20205;-79